sensor_id;sensor_type;location;lat;lon;timestamp;P1;durP1;ratioP1;P2;durP2;ratioP2
75216;SDS011;63800;51.972;5.682;2023-09-19T00:00:23;4.20;;;2.00;;
75216;SDS011;63800;51.972;5.682;2023-09-19T00:02:54;5.25;;;2.08;;
75216;SDS011;63800;51.972;5.682;2023-09-19T00:05:24;5.72;;;1.83;;
75216;SDS011;63800;51.972;5.682;2023-09-19T00:07:53;5.20;;;2.25;;
75216;SDS011;63800;51.972;5.682;2023-09-19T00:10:20;4.65;;;2.00;;
75216;SDS011;63800;51.972;5.682;2023-09-19T00:13:00;5.82;;;2.13;;
75216;SDS011;63800;51.972;5.682;2023-09-19T00:15:30;7.57;;;2.00;;
75216;SDS011;63800;51.972;5.682;2023-09-19T00:18:00;6.43;;;2.08;;
75216;SDS011;63800;51.972;5.682;2023-09-19T00:20:26;7.90;;;2.05;;
75216;SDS011;63800;51.972;5.682;2023-09-19T00:22:51;6.65;;;2.03;;
75216;SDS011;63800;51.972;5.682;2023-09-19T00:25:19;6.15;;;2.05;;
75216;SDS011;63800;51.972;5.682;2023-09-19T00:27:45;6.60;;;2.30;;
75216;SDS011;63800;51.972;5.682;2023-09-19T00:30:13;3.75;;;1.80;;
75216;SDS011;63800;51.972;5.682;2023-09-19T00:32:44;4.90;;;2.50;;
75216;SDS011;63800;51.972;5.682;2023-09-19T00:35:12;5.30;;;2.53;;
75216;SDS011;63800;51.972;5.682;2023-09-19T00:37:39;8.18;;;3.67;;
75216;SDS011;63800;51.972;5.682;2023-09-19T00:40:05;9.32;;;6.03;;
75216;SDS011;63800;51.972;5.682;2023-09-19T00:42:39;13.60;;;6.80;;
75216;SDS011;63800;51.972;5.682;2023-09-19T00:45:06;14.27;;;7.97;;
75216;SDS011;63800;51.972;5.682;2023-09-19T00:47:40;12.50;;;8.20;;
75216;SDS011;63800;51.972;5.682;2023-09-19T00:50:07;12.57;;;8.45;;
75216;SDS011;63800;51.972;5.682;2023-09-19T00:52:34;11.18;;;6.07;;
75216;SDS011;63800;51.972;5.682;2023-09-19T00:55:06;11.35;;;6.68;;
75216;SDS011;63800;51.972;5.682;2023-09-19T00:57:36;11.55;;;5.85;;
75216;SDS011;63800;51.972;5.682;2023-09-19T01:00:06;10.52;;;6.07;;
75216;SDS011;63800;51.972;5.682;2023-09-19T01:02:37;15.07;;;7.43;;
75216;SDS011;63800;51.972;5.682;2023-09-19T01:05:03;11.45;;;6.47;;
75216;SDS011;63800;51.972;5.682;2023-09-19T01:07:32;12.85;;;6.38;;
75216;SDS011;63800;51.972;5.682;2023-09-19T01:10:02;16.80;;;7.82;;
75216;SDS011;63800;51.972;5.682;2023-09-19T01:12:33;19.65;;;9.93;;
75216;SDS011;63800;51.972;5.682;2023-09-19T01:15:15;15.75;;;9.40;;
75216;SDS011;63800;51.972;5.682;2023-09-19T01:17:53;18.50;;;11.02;;
75216;SDS011;63800;51.972;5.682;2023-09-19T01:31:09;8.77;;;3.85;;
75216;SDS011;63800;51.972;5.682;2023-09-19T01:36:35;7.53;;;2.90;;
75216;SDS011;63800;51.972;5.682;2023-09-19T01:39:05;8.60;;;2.97;;
75216;SDS011;63800;51.972;5.682;2023-09-19T01:41:51;8.05;;;2.70;;
75216;SDS011;63800;51.972;5.682;2023-09-19T01:44:28;8.65;;;3.10;;
75216;SDS011;63800;51.972;5.682;2023-09-19T01:47:03;9.55;;;3.03;;
75216;SDS011;63800;51.972;5.682;2023-09-19T01:49:42;8.63;;;2.65;;
75216;SDS011;63800;51.972;5.682;2023-09-19T01:52:15;8.95;;;2.60;;
75216;SDS011;63800;51.972;5.682;2023-09-19T01:54:51;5.95;;;2.45;;
75216;SDS011;63800;51.972;5.682;2023-09-19T02:00:01;8.23;;;2.50;;
75216;SDS011;63800;51.972;5.682;2023-09-19T02:02:37;5.65;;;2.30;;
75216;SDS011;63800;51.972;5.682;2023-09-19T02:05:03;6.38;;;2.05;;
75216;SDS011;63800;51.972;5.682;2023-09-19T02:07:30;6.13;;;2.13;;
75216;SDS011;63800;51.972;5.682;2023-09-19T02:09:58;10.30;;;3.03;;
75216;SDS011;63800;51.972;5.682;2023-09-19T02:12:30;8.10;;;2.58;;
75216;SDS011;63800;51.972;5.682;2023-09-19T02:14:56;13.88;;;4.35;;
75216;SDS011;63800;51.972;5.682;2023-09-19T02:17:22;9.10;;;2.75;;
75216;SDS011;63800;51.972;5.682;2023-09-19T02:19:51;9.23;;;2.38;;
75216;SDS011;63800;51.972;5.682;2023-09-19T02:22:20;7.50;;;2.97;;
75216;SDS011;63800;51.972;5.682;2023-09-19T02:24:46;8.45;;;2.70;;
75216;SDS011;63800;51.972;5.682;2023-09-19T02:27:13;11.00;;;3.08;;
75216;SDS011;63800;51.972;5.682;2023-09-19T02:29:40;7.78;;;2.50;;
75216;SDS011;63800;51.972;5.682;2023-09-19T02:32:06;9.07;;;2.65;;
75216;SDS011;63800;51.972;5.682;2023-09-19T02:34:32;8.43;;;3.03;;
75216;SDS011;63800;51.972;5.682;2023-09-19T02:36:57;8.10;;;2.85;;
75216;SDS011;63800;51.972;5.682;2023-09-19T02:39:23;9.05;;;2.65;;
75216;SDS011;63800;51.972;5.682;2023-09-19T02:41:48;11.80;;;3.65;;
75216;SDS011;63800;51.972;5.682;2023-09-19T02:44:14;8.05;;;2.70;;
75216;SDS011;63800;51.972;5.682;2023-09-19T02:46:40;10.27;;;3.20;;
75216;SDS011;63800;51.972;5.682;2023-09-19T02:49:05;9.32;;;2.70;;
75216;SDS011;63800;51.972;5.682;2023-09-19T02:51:31;7.57;;;2.85;;
75216;SDS011;63800;51.972;5.682;2023-09-19T02:54:00;8.68;;;2.35;;
75216;SDS011;63800;51.972;5.682;2023-09-19T02:56:28;8.65;;;2.75;;
75216;SDS011;63800;51.972;5.682;2023-09-19T02:58:55;7.35;;;2.70;;
75216;SDS011;63800;51.972;5.682;2023-09-19T03:01:22;10.20;;;2.25;;
75216;SDS011;63800;51.972;5.682;2023-09-19T03:03:47;5.70;;;2.30;;
75216;SDS011;63800;51.972;5.682;2023-09-19T03:06:13;6.68;;;2.22;;
75216;SDS011;63800;51.972;5.682;2023-09-19T03:08:39;8.55;;;3.08;;
75216;SDS011;63800;51.972;5.682;2023-09-19T03:11:07;10.80;;;2.67;;
75216;SDS011;63800;51.972;5.682;2023-09-19T03:13:36;7.25;;;2.30;;
75216;SDS011;63800;51.972;5.682;2023-09-19T03:16:03;10.93;;;3.20;;
75216;SDS011;63800;51.972;5.682;2023-09-19T03:18:31;8.15;;;2.60;;
75216;SDS011;63800;51.972;5.682;2023-09-19T03:20:57;10.23;;;2.80;;
75216;SDS011;63800;51.972;5.682;2023-09-19T03:23:26;8.00;;;2.70;;
75216;SDS011;63800;51.972;5.682;2023-09-19T03:25:52;8.60;;;3.17;;
75216;SDS011;63800;51.972;5.682;2023-09-19T03:28:18;10.38;;;3.55;;
75216;SDS011;63800;51.972;5.682;2023-09-19T03:30:45;11.32;;;3.55;;
75216;SDS011;63800;51.972;5.682;2023-09-19T03:33:11;9.88;;;3.90;;
75216;SDS011;63800;51.972;5.682;2023-09-19T03:35:37;9.95;;;3.83;;
75216;SDS011;63800;51.972;5.682;2023-09-19T03:38:04;8.70;;;3.90;;
75216;SDS011;63800;51.972;5.682;2023-09-19T03:40:30;12.38;;;4.45;;
75216;SDS011;63800;51.972;5.682;2023-09-19T03:42:55;11.18;;;3.75;;
75216;SDS011;63800;51.972;5.682;2023-09-19T03:45:21;9.60;;;4.10;;
75216;SDS011;63800;51.972;5.682;2023-09-19T03:47:46;11.82;;;4.60;;
75216;SDS011;63800;51.972;5.682;2023-09-19T03:50:12;11.82;;;4.90;;
75216;SDS011;63800;51.972;5.682;2023-09-19T03:52:43;12.93;;;5.05;;
75216;SDS011;63800;51.972;5.682;2023-09-19T03:55:09;9.45;;;4.68;;
75216;SDS011;63800;51.972;5.682;2023-09-19T03:57:35;10.15;;;4.75;;
75216;SDS011;63800;51.972;5.682;2023-09-19T04:00:01;12.70;;;4.05;;
75216;SDS011;63800;51.972;5.682;2023-09-19T04:02:27;6.47;;;3.00;;
75216;SDS011;63800;51.972;5.682;2023-09-19T04:04:58;13.45;;;4.47;;
75216;SDS011;63800;51.972;5.682;2023-09-19T04:07:23;8.57;;;3.42;;
75216;SDS011;63800;51.972;5.682;2023-09-19T04:09:51;10.00;;;3.40;;
75216;SDS011;63800;51.972;5.682;2023-09-19T04:12:18;8.30;;;3.50;;
75216;SDS011;63800;51.972;5.682;2023-09-19T04:14:44;9.20;;;4.25;;
75216;SDS011;63800;51.972;5.682;2023-09-19T04:17:09;10.07;;;4.20;;
75216;SDS011;63800;51.972;5.682;2023-09-19T04:19:35;11.38;;;3.88;;
75216;SDS011;63800;51.972;5.682;2023-09-19T04:22:01;14.05;;;4.53;;
75216;SDS011;63800;51.972;5.682;2023-09-19T04:24:27;8.27;;;4.55;;
75216;SDS011;63800;51.972;5.682;2023-09-19T04:26:53;10.95;;;5.07;;
75216;SDS011;63800;51.972;5.682;2023-09-19T04:29:19;12.43;;;5.70;;
75216;SDS011;63800;51.972;5.682;2023-09-19T04:31:45;9.25;;;3.15;;
75216;SDS011;63800;51.972;5.682;2023-09-19T04:34:11;9.63;;;3.15;;
75216;SDS011;63800;51.972;5.682;2023-09-19T04:36:42;10.25;;;3.50;;
75216;SDS011;63800;51.972;5.682;2023-09-19T04:39:08;7.75;;;3.70;;
75216;SDS011;63800;51.972;5.682;2023-09-19T04:41:36;10.38;;;4.22;;
75216;SDS011;63800;51.972;5.682;2023-09-19T04:44:04;8.40;;;4.20;;
75216;SDS011;63800;51.972;5.682;2023-09-19T04:46:30;8.60;;;3.70;;
75216;SDS011;63800;51.972;5.682;2023-09-19T04:48:55;9.10;;;4.22;;
75216;SDS011;63800;51.972;5.682;2023-09-19T04:51:21;5.80;;;3.20;;
75216;SDS011;63800;51.972;5.682;2023-09-19T04:53:46;9.77;;;3.25;;
75216;SDS011;63800;51.972;5.682;2023-09-19T04:56:12;5.35;;;2.40;;
75216;SDS011;63800;51.972;5.682;2023-09-19T04:58:38;6.95;;;3.05;;
75216;SDS011;63800;51.972;5.682;2023-09-19T05:01:04;5.95;;;2.42;;
75216;SDS011;63800;51.972;5.682;2023-09-19T05:03:29;7.57;;;2.58;;
75216;SDS011;63800;51.972;5.682;2023-09-19T05:05:55;7.97;;;2.35;;
75216;SDS011;63800;51.972;5.682;2023-09-19T05:08:20;5.75;;;2.45;;
75216;SDS011;63800;51.972;5.682;2023-09-19T05:10:47;7.70;;;2.97;;
75216;SDS011;63800;51.972;5.682;2023-09-19T05:13:13;13.48;;;4.35;;
75216;SDS011;63800;51.972;5.682;2023-09-19T05:15:39;9.23;;;4.50;;
75216;SDS011;63800;51.972;5.682;2023-09-19T05:18:05;13.07;;;4.53;;
75216;SDS011;63800;51.972;5.682;2023-09-19T05:20:31;10.82;;;4.68;;
75216;SDS011;63800;51.972;5.682;2023-09-19T05:23:03;10.23;;;4.07;;
75216;SDS011;63800;51.972;5.682;2023-09-19T05:25:33;15.40;;;5.93;;
75216;SDS011;63800;51.972;5.682;2023-09-19T05:28:02;9.18;;;4.97;;
75216;SDS011;63800;51.972;5.682;2023-09-19T05:30:30;9.80;;;5.10;;
75216;SDS011;63800;51.972;5.682;2023-09-19T05:32:57;14.82;;;5.43;;
75216;SDS011;63800;51.972;5.682;2023-09-19T05:35:23;12.30;;;4.95;;
75216;SDS011;63800;51.972;5.682;2023-09-19T05:37:52;13.43;;;4.78;;
75216;SDS011;63800;51.972;5.682;2023-09-19T05:40:18;10.73;;;4.53;;
75216;SDS011;63800;51.972;5.682;2023-09-19T05:42:44;11.80;;;5.43;;
75216;SDS011;63800;51.972;5.682;2023-09-19T05:45:10;11.15;;;5.05;;
75216;SDS011;63800;51.972;5.682;2023-09-19T05:47:43;9.48;;;4.43;;
75216;SDS011;63800;51.972;5.682;2023-09-19T05:50:11;10.95;;;3.90;;
75216;SDS011;63800;51.972;5.682;2023-09-19T05:52:36;11.20;;;4.57;;
75216;SDS011;63800;51.972;5.682;2023-09-19T05:55:05;11.50;;;4.28;;
75216;SDS011;63800;51.972;5.682;2023-09-19T05:57:33;12.63;;;3.85;;
75216;SDS011;63800;51.972;5.682;2023-09-19T05:59:59;9.15;;;3.85;;
75216;SDS011;63800;51.972;5.682;2023-09-19T06:02:24;11.93;;;4.35;;
75216;SDS011;63800;51.972;5.682;2023-09-19T06:04:53;13.23;;;4.97;;
75216;SDS011;63800;51.972;5.682;2023-09-19T06:07:20;13.02;;;4.30;;
75216;SDS011;63800;51.972;5.682;2023-09-19T06:09:47;15.15;;;4.97;;
75216;SDS011;63800;51.972;5.682;2023-09-19T06:12:12;10.10;;;4.45;;
75216;SDS011;63800;51.972;5.682;2023-09-19T06:14:40;10.27;;;4.15;;
75216;SDS011;63800;51.972;5.682;2023-09-19T06:17:06;10.25;;;4.82;;
75216;SDS011;63800;51.972;5.682;2023-09-19T06:19:31;12.23;;;4.63;;
75216;SDS011;63800;51.972;5.682;2023-09-19T06:21:57;11.85;;;4.65;;
75216;SDS011;63800;51.972;5.682;2023-09-19T06:24:24;12.70;;;5.05;;
75216;SDS011;63800;51.972;5.682;2023-09-19T06:26:50;12.73;;;4.70;;
75216;SDS011;63800;51.972;5.682;2023-09-19T06:29:17;14.20;;;4.60;;
75216;SDS011;63800;51.972;5.682;2023-09-19T06:31:43;10.15;;;4.18;;
75216;SDS011;63800;51.972;5.682;2023-09-19T06:34:09;13.23;;;5.22;;
75216;SDS011;63800;51.972;5.682;2023-09-19T06:36:35;11.23;;;4.40;;
75216;SDS011;63800;51.972;5.682;2023-09-19T06:39:01;10.88;;;4.25;;
75216;SDS011;63800;51.972;5.682;2023-09-19T06:41:29;9.35;;;3.60;;
75216;SDS011;63800;51.972;5.682;2023-09-19T06:43:55;7.32;;;3.58;;
75216;SDS011;63800;51.972;5.682;2023-09-19T06:46:20;12.93;;;3.47;;
75216;SDS011;63800;51.972;5.682;2023-09-19T06:48:46;7.50;;;3.00;;
75216;SDS011;63800;51.972;5.682;2023-09-19T06:51:12;9.48;;;3.47;;
75216;SDS011;63800;51.972;5.682;2023-09-19T06:53:40;8.63;;;3.10;;
75216;SDS011;63800;51.972;5.682;2023-09-19T06:56:06;13.15;;;3.60;;
75216;SDS011;63800;51.972;5.682;2023-09-19T06:58:32;8.88;;;3.45;;
75216;SDS011;63800;51.972;5.682;2023-09-19T07:00:57;12.43;;;3.95;;
75216;SDS011;63800;51.972;5.682;2023-09-19T07:03:23;13.98;;;4.10;;
75216;SDS011;63800;51.972;5.682;2023-09-19T07:05:51;12.63;;;4.43;;
75216;SDS011;63800;51.972;5.682;2023-09-19T07:08:18;8.95;;;4.32;;
75216;SDS011;63800;51.972;5.682;2023-09-19T07:10:44;8.10;;;3.75;;
75216;SDS011;63800;51.972;5.682;2023-09-19T07:13:17;10.57;;;4.07;;
75216;SDS011;63800;51.972;5.682;2023-09-19T07:15:43;9.40;;;3.38;;
75216;SDS011;63800;51.972;5.682;2023-09-19T07:18:12;8.07;;;2.85;;
75216;SDS011;63800;51.972;5.682;2023-09-19T07:20:39;12.02;;;3.63;;
75216;SDS011;63800;51.972;5.682;2023-09-19T07:23:10;10.15;;;2.92;;
75216;SDS011;63800;51.972;5.682;2023-09-19T07:25:39;12.88;;;3.03;;
75216;SDS011;63800;51.972;5.682;2023-09-19T07:28:05;8.90;;;2.95;;
75216;SDS011;63800;51.972;5.682;2023-09-19T07:30:30;9.27;;;3.08;;
75216;SDS011;63800;51.972;5.682;2023-09-19T07:32:56;10.52;;;3.60;;
75216;SDS011;63800;51.972;5.682;2023-09-19T07:35:21;9.82;;;3.38;;
75216;SDS011;63800;51.972;5.682;2023-09-19T07:37:47;11.20;;;3.50;;
75216;SDS011;63800;51.972;5.682;2023-09-19T07:40:21;9.15;;;3.20;;
75216;SDS011;63800;51.972;5.682;2023-09-19T07:42:49;13.63;;;3.30;;
75216;SDS011;63800;51.972;5.682;2023-09-19T07:45:15;12.63;;;3.50;;
75216;SDS011;63800;51.972;5.682;2023-09-19T07:47:45;10.27;;;2.83;;
75216;SDS011;63800;51.972;5.682;2023-09-19T07:50:12;11.63;;;2.97;;
75216;SDS011;63800;51.972;5.682;2023-09-19T07:52:44;8.93;;;2.90;;
75216;SDS011;63800;51.972;5.682;2023-09-19T07:55:10;7.30;;;2.13;;
75216;SDS011;63800;51.972;5.682;2023-09-19T07:57:40;11.25;;;3.10;;
75216;SDS011;63800;51.972;5.682;2023-09-19T08:00:07;10.02;;;2.92;;
75216;SDS011;63800;51.972;5.682;2023-09-19T08:02:35;10.02;;;2.75;;
75216;SDS011;63800;51.972;5.682;2023-09-19T08:05:03;13.93;;;3.35;;
75216;SDS011;63800;51.972;5.682;2023-09-19T08:07:35;10.65;;;3.00;;
75216;SDS011;63800;51.972;5.682;2023-09-19T08:10:04;13.30;;;3.13;;
75216;SDS011;63800;51.972;5.682;2023-09-19T08:12:38;9.60;;;3.00;;
75216;SDS011;63800;51.972;5.682;2023-09-19T08:15:18;9.13;;;3.03;;
75216;SDS011;63800;51.972;5.682;2023-09-19T08:17:45;9.30;;;2.85;;
75216;SDS011;63800;51.972;5.682;2023-09-19T08:20:11;8.40;;;3.08;;
75216;SDS011;63800;51.972;5.682;2023-09-19T08:22:52;13.88;;;3.95;;
75216;SDS011;63800;51.972;5.682;2023-09-19T08:25:20;10.07;;;3.45;;
75216;SDS011;63800;51.972;5.682;2023-09-19T08:27:47;12.40;;;3.20;;
75216;SDS011;63800;51.972;5.682;2023-09-19T08:30:18;9.90;;;3.15;;
75216;SDS011;63800;51.972;5.682;2023-09-19T08:32:49;19.00;;;4.30;;
75216;SDS011;63800;51.972;5.682;2023-09-19T08:35:26;11.30;;;3.15;;
75216;SDS011;63800;51.972;5.682;2023-09-19T08:37:52;11.32;;;3.42;;
75216;SDS011;63800;51.972;5.682;2023-09-19T08:40:17;8.82;;;2.90;;
75216;SDS011;63800;51.972;5.682;2023-09-19T08:42:53;7.78;;;3.03;;
75216;SDS011;63800;51.972;5.682;2023-09-19T08:45:20;10.55;;;3.05;;
75216;SDS011;63800;51.972;5.682;2023-09-19T08:51:07;12.90;;;3.20;;
75216;SDS011;63800;51.972;5.682;2023-09-19T08:56:12;11.38;;;3.30;;
75216;SDS011;63800;51.972;5.682;2023-09-19T08:58:46;9.45;;;3.05;;
75216;SDS011;63800;51.972;5.682;2023-09-19T09:01:18;9.00;;;3.10;;
75216;SDS011;63800;51.972;5.682;2023-09-19T09:03:51;12.30;;;3.50;;
75216;SDS011;63800;51.972;5.682;2023-09-19T09:06:18;9.23;;;3.55;;
75216;SDS011;63800;51.972;5.682;2023-09-19T09:08:45;10.88;;;3.50;;
75216;SDS011;63800;51.972;5.682;2023-09-19T09:11:12;8.57;;;2.92;;
75216;SDS011;63800;51.972;5.682;2023-09-19T09:13:39;8.10;;;3.00;;
75216;SDS011;63800;51.972;5.682;2023-09-19T09:16:06;11.20;;;3.20;;
75216;SDS011;63800;51.972;5.682;2023-09-19T09:18:32;13.57;;;3.30;;
75216;SDS011;63800;51.972;5.682;2023-09-19T09:20:58;7.47;;;3.33;;
75216;SDS011;63800;51.972;5.682;2023-09-19T09:23:24;10.10;;;2.72;;
75216;SDS011;63800;51.972;5.682;2023-09-19T09:25:54;9.82;;;2.83;;
75216;SDS011;63800;51.972;5.682;2023-09-19T09:28:21;9.55;;;3.10;;
75216;SDS011;63800;51.972;5.682;2023-09-19T09:30:48;7.57;;;2.92;;
75216;SDS011;63800;51.972;5.682;2023-09-19T09:33:14;6.20;;;2.60;;
75216;SDS011;63800;51.972;5.682;2023-09-19T09:35:51;9.20;;;2.60;;
75216;SDS011;63800;51.972;5.682;2023-09-19T09:38:44;7.68;;;2.55;;
75216;SDS011;63800;51.972;5.682;2023-09-19T09:41:11;9.93;;;2.60;;
75216;SDS011;63800;51.972;5.682;2023-09-19T09:43:40;13.05;;;2.72;;
75216;SDS011;63800;51.972;5.682;2023-09-19T09:46:16;8.40;;;2.55;;
75216;SDS011;63800;51.972;5.682;2023-09-19T09:48:47;9.18;;;2.80;;
75216;SDS011;63800;51.972;5.682;2023-09-19T09:51:39;12.23;;;3.50;;
75216;SDS011;63800;51.972;5.682;2023-09-19T09:54:10;6.82;;;2.60;;
75216;SDS011;63800;51.972;5.682;2023-09-19T09:56:55;8.73;;;2.60;;
75216;SDS011;63800;51.972;5.682;2023-09-19T09:59:53;9.65;;;2.90;;
75216;SDS011;63800;51.972;5.682;2023-09-19T10:02:26;10.50;;;2.90;;
75216;SDS011;63800;51.972;5.682;2023-09-19T10:05:11;13.07;;;3.80;;
75216;SDS011;63800;51.972;5.682;2023-09-19T10:07:49;10.60;;;3.53;;
75216;SDS011;63800;51.972;5.682;2023-09-19T10:10:33;8.48;;;2.75;;
75216;SDS011;63800;51.972;5.682;2023-09-19T10:13:06;8.05;;;3.05;;
75216;SDS011;63800;51.972;5.682;2023-09-19T10:15:37;8.23;;;2.88;;
75216;SDS011;63800;51.972;5.682;2023-09-19T10:18:06;6.75;;;2.70;;
75216;SDS011;63800;51.972;5.682;2023-09-19T10:20:35;10.23;;;2.70;;
75216;SDS011;63800;51.972;5.682;2023-09-19T10:23:06;12.10;;;3.03;;
75216;SDS011;63800;51.972;5.682;2023-09-19T10:25:45;8.13;;;3.60;;
75216;SDS011;63800;51.972;5.682;2023-09-19T10:28:12;11.30;;;3.60;;
75216;SDS011;63800;51.972;5.682;2023-09-19T10:30:45;8.05;;;2.50;;
75216;SDS011;63800;51.972;5.682;2023-09-19T10:33:15;6.75;;;2.78;;
75216;SDS011;63800;51.972;5.682;2023-09-19T10:35:47;9.57;;;3.30;;
75216;SDS011;63800;51.972;5.682;2023-09-19T10:38:15;7.53;;;2.97;;
75216;SDS011;63800;51.972;5.682;2023-09-19T10:40:48;9.07;;;2.65;;
75216;SDS011;63800;51.972;5.682;2023-09-19T10:43:16;6.55;;;2.53;;
75216;SDS011;63800;51.972;5.682;2023-09-19T10:45:46;7.25;;;2.58;;
75216;SDS011;63800;51.972;5.682;2023-09-19T10:48:14;9.45;;;3.05;;
75216;SDS011;63800;51.972;5.682;2023-09-19T10:51:03;11.60;;;3.90;;
75216;SDS011;63800;51.972;5.682;2023-09-19T10:53:43;8.90;;;2.47;;
75216;SDS011;63800;51.972;5.682;2023-09-19T10:56:19;6.57;;;3.17;;
75216;SDS011;63800;51.972;5.682;2023-09-19T10:58:48;9.90;;;2.92;;
75216;SDS011;63800;51.972;5.682;2023-09-19T11:01:14;7.78;;;2.50;;
75216;SDS011;63800;51.972;5.682;2023-09-19T11:03:40;6.45;;;2.50;;
75216;SDS011;63800;51.972;5.682;2023-09-19T11:06:14;6.97;;;2.30;;
75216;SDS011;63800;51.972;5.682;2023-09-19T11:14:28;7.40;;;2.55;;
75216;SDS011;63800;51.972;5.682;2023-09-19T11:25:42;6.80;;;2.60;;
75216;SDS011;63800;51.972;5.682;2023-09-19T11:30:48;7.50;;;2.00;;
75216;SDS011;63800;51.972;5.682;2023-09-19T11:36:06;8.30;;;3.30;;
75216;SDS011;63800;51.972;5.682;2023-09-19T11:46:25;5.18;;;1.90;;
75216;SDS011;63800;51.972;5.682;2023-09-19T11:48:53;8.63;;;2.50;;
75216;SDS011;63800;51.972;5.682;2023-09-19T11:51:19;6.10;;;2.40;;
75216;SDS011;63800;51.972;5.682;2023-09-19T11:53:52;7.93;;;2.50;;
75216;SDS011;63800;51.972;5.682;2023-09-19T11:56:28;6.70;;;1.83;;
75216;SDS011;63800;51.972;5.682;2023-09-19T11:58:56;8.95;;;2.30;;
75216;SDS011;63800;51.972;5.682;2023-09-19T12:04:00;4.93;;;1.95;;
75216;SDS011;63800;51.972;5.682;2023-09-19T12:06:29;6.57;;;1.90;;
75216;SDS011;63800;51.972;5.682;2023-09-19T12:08:57;2.50;;;1.63;;
75216;SDS011;63800;51.972;5.682;2023-09-19T12:11:27;5.43;;;2.05;;
75216;SDS011;63800;51.972;5.682;2023-09-19T12:13:58;5.47;;;2.05;;
75216;SDS011;63800;51.972;5.682;2023-09-19T12:16:25;4.18;;;1.77;;
75216;SDS011;63800;51.972;5.682;2023-09-19T12:18:55;4.25;;;2.00;;
75216;SDS011;63800;51.972;5.682;2023-09-19T12:26:36;6.38;;;1.88;;
75216;SDS011;63800;51.972;5.682;2023-09-19T12:29:16;7.55;;;1.55;;
75216;SDS011;63800;51.972;5.682;2023-09-19T12:31:47;5.60;;;1.67;;
75216;SDS011;63800;51.972;5.682;2023-09-19T12:34:30;6.45;;;2.00;;
75216;SDS011;63800;51.972;5.682;2023-09-19T12:37:15;4.60;;;1.85;;
75216;SDS011;63800;51.972;5.682;2023-09-19T12:39:46;4.32;;;1.80;;
75216;SDS011;63800;51.972;5.682;2023-09-19T12:42:19;4.15;;;1.77;;
75216;SDS011;63800;51.972;5.682;2023-09-19T12:44:47;4.85;;;1.60;;
75216;SDS011;63800;51.972;5.682;2023-09-19T12:47:17;5.05;;;2.13;;
75216;SDS011;63800;51.972;5.682;2023-09-19T12:52:44;4.72;;;1.67;;
75216;SDS011;63800;51.972;5.682;2023-09-19T12:55:19;6.38;;;1.90;;
75216;SDS011;63800;51.972;5.682;2023-09-19T12:57:59;5.82;;;2.00;;
75216;SDS011;63800;51.972;5.682;2023-09-19T13:00:46;6.10;;;2.08;;
75216;SDS011;63800;51.972;5.682;2023-09-19T13:03:33;7.30;;;2.10;;
75216;SDS011;63800;51.972;5.682;2023-09-19T13:06:03;4.70;;;1.70;;
75216;SDS011;63800;51.972;5.682;2023-09-19T13:08:39;4.15;;;1.52;;
75216;SDS011;63800;51.972;5.682;2023-09-19T13:11:14;7.05;;;2.30;;
75216;SDS011;63800;51.972;5.682;2023-09-19T13:16:54;2.60;;;1.52;;
75216;SDS011;63800;51.972;5.682;2023-09-19T13:25:07;4.70;;;1.85;;
75216;SDS011;63800;51.972;5.682;2023-09-19T13:27:55;4.28;;;1.73;;
75216;SDS011;63800;51.972;5.682;2023-09-19T13:30:25;6.25;;;2.13;;
75216;SDS011;63800;51.972;5.682;2023-09-19T13:35:35;2.95;;;1.50;;
75216;SDS011;63800;51.972;5.682;2023-09-19T13:38:03;6.13;;;1.83;;
75216;SDS011;63800;51.972;5.682;2023-09-19T13:40:29;3.88;;;1.65;;
75216;SDS011;63800;51.972;5.682;2023-09-19T13:42:59;4.03;;;1.70;;
75216;SDS011;63800;51.972;5.682;2023-09-19T13:45:25;3.58;;;1.70;;
75216;SDS011;63800;51.972;5.682;2023-09-19T13:47:55;2.65;;;1.40;;
75216;SDS011;63800;51.972;5.682;2023-09-19T13:50:21;5.13;;;1.83;;
75216;SDS011;63800;51.972;5.682;2023-09-19T13:52:49;5.07;;;1.70;;
75216;SDS011;63800;51.972;5.682;2023-09-19T13:55:16;5.07;;;1.70;;
75216;SDS011;63800;51.972;5.682;2023-09-19T13:57:45;2.22;;;1.40;;
75216;SDS011;63800;51.972;5.682;2023-09-19T14:00:15;4.53;;;1.80;;
75216;SDS011;63800;51.972;5.682;2023-09-19T14:02:41;3.00;;;1.50;;
75216;SDS011;63800;51.972;5.682;2023-09-19T14:05:09;4.35;;;1.30;;
75216;SDS011;63800;51.972;5.682;2023-09-19T14:07:37;2.28;;;1.58;;
75216;SDS011;63800;51.972;5.682;2023-09-19T14:10:03;2.80;;;1.65;;
75216;SDS011;63800;51.972;5.682;2023-09-19T14:12:29;2.92;;;1.50;;
75216;SDS011;63800;51.972;5.682;2023-09-19T14:14:55;5.68;;;1.80;;
75216;SDS011;63800;51.972;5.682;2023-09-19T14:17:21;7.45;;;1.67;;
75216;SDS011;63800;51.972;5.682;2023-09-19T14:19:46;3.30;;;1.52;;
75216;SDS011;63800;51.972;5.682;2023-09-19T14:22:12;5.75;;;2.10;;
75216;SDS011;63800;51.972;5.682;2023-09-19T14:24:39;2.85;;;1.70;;
75216;SDS011;63800;51.972;5.682;2023-09-19T14:27:06;4.78;;;1.95;;
75216;SDS011;63800;51.972;5.682;2023-09-19T14:29:34;3.42;;;1.40;;
75216;SDS011;63800;51.972;5.682;2023-09-19T14:31:59;4.00;;;1.90;;
75216;SDS011;63800;51.972;5.682;2023-09-19T14:34:25;6.00;;;1.70;;
75216;SDS011;63800;51.972;5.682;2023-09-19T14:36:50;5.50;;;2.13;;
75216;SDS011;63800;51.972;5.682;2023-09-19T14:39:15;6.70;;;2.00;;
75216;SDS011;63800;51.972;5.682;2023-09-19T14:41:41;3.30;;;2.00;;
75216;SDS011;63800;51.972;5.682;2023-09-19T14:44:06;3.30;;;1.90;;
75216;SDS011;63800;51.972;5.682;2023-09-19T14:46:32;5.05;;;2.03;;
75216;SDS011;63800;51.972;5.682;2023-09-19T14:48:58;4.15;;;1.70;;
75216;SDS011;63800;51.972;5.682;2023-09-19T14:51:29;4.68;;;1.63;;
75216;SDS011;63800;51.972;5.682;2023-09-19T14:53:54;5.30;;;1.85;;
75216;SDS011;63800;51.972;5.682;2023-09-19T14:56:20;4.32;;;1.63;;
75216;SDS011;63800;51.972;5.682;2023-09-19T14:58:46;8.35;;;2.08;;
75216;SDS011;63800;51.972;5.682;2023-09-19T15:01:13;3.50;;;2.03;;
75216;SDS011;63800;51.972;5.682;2023-09-19T15:03:39;4.05;;;1.60;;
75216;SDS011;63800;51.972;5.682;2023-09-19T15:06:06;4.55;;;1.77;;
75216;SDS011;63800;51.972;5.682;2023-09-19T15:08:34;4.13;;;1.80;;
75216;SDS011;63800;51.972;5.682;2023-09-19T15:11:05;7.35;;;2.10;;
75216;SDS011;63800;51.972;5.682;2023-09-19T15:13:32;4.95;;;1.92;;
75216;SDS011;63800;51.972;5.682;2023-09-19T15:16:01;5.97;;;1.98;;
75216;SDS011;63800;51.972;5.682;2023-09-19T15:18:36;5.97;;;2.50;;
75216;SDS011;63800;51.972;5.682;2023-09-19T15:21:03;4.60;;;1.88;;
75216;SDS011;63800;51.972;5.682;2023-09-19T15:23:29;4.35;;;1.75;;
75216;SDS011;63800;51.972;5.682;2023-09-19T15:25:56;4.97;;;2.00;;
75216;SDS011;63800;51.972;5.682;2023-09-19T15:28:22;4.63;;;2.30;;
75216;SDS011;63800;51.972;5.682;2023-09-19T15:30:48;5.43;;;2.05;;
75216;SDS011;63800;51.972;5.682;2023-09-19T15:33:14;4.15;;;1.75;;
75216;SDS011;63800;51.972;5.682;2023-09-19T15:35:40;2.90;;;1.92;;
75216;SDS011;63800;51.972;5.682;2023-09-19T15:38:05;4.03;;;2.05;;
75216;SDS011;63800;51.972;5.682;2023-09-19T15:40:32;4.88;;;2.05;;
75216;SDS011;63800;51.972;5.682;2023-09-19T15:42:58;5.75;;;2.50;;
75216;SDS011;63800;51.972;5.682;2023-09-19T15:45:23;5.00;;;2.30;;
75216;SDS011;63800;51.972;5.682;2023-09-19T15:47:50;8.32;;;2.30;;
75216;SDS011;63800;51.972;5.682;2023-09-19T15:50:16;5.22;;;2.17;;
75216;SDS011;63800;51.972;5.682;2023-09-19T15:52:42;5.00;;;1.75;;
75216;SDS011;63800;51.972;5.682;2023-09-19T15:55:08;5.13;;;2.25;;
75216;SDS011;63800;51.972;5.682;2023-09-19T15:57:34;4.43;;;1.90;;
75216;SDS011;63800;51.972;5.682;2023-09-19T16:00:04;5.68;;;2.40;;
75216;SDS011;63800;51.972;5.682;2023-09-19T16:02:35;3.63;;;1.90;;
75216;SDS011;63800;51.972;5.682;2023-09-19T16:05:01;4.57;;;2.00;;